2W6

St Mary's County Regional Airport

Leonardtown, Maryland, USA
METAR K2W6 211603Z AUTO 28017G22KT 10SM CLR M07/M20 A3033 RMK AO1
Observed Flight Rules
Jan-21 @ 16:03 UTC (36 minutes ago) Visual Flight Rules
Wind Visibility Clouds
280° at 17 knots
 Gusting to 22 knots
10 miles
  • Clear skies
Temperatures Readings
Current -7°C / 19°F
Dewpoint -20°C / -4°F
Humidity 35%
Altimeter 30.33" Hg
Pressure 1027.12 hPa
Elevation 44
METAR K2W6 211603Z AUTO 28017G22KT 10SM CLR M07/M20 A3033 RMK AO1
Observed Flight Rules
Jan-21 @ 16:03 UTC
(36 minutes ago)
VFR
Wind Visibility
280° at 17 knots
 Gusting to 22 knots
10 miles
Clouds
  • Clear skies
Temperature Dewpoint
-7°C / 19°F -20°C / -4°F
Humidity Altimeter Pressure
35% 30.33" Hg 1027.12 hPa